Time;durP1;ratioP1;P1;durP2;ratioP2;P2;SDS_P1;SDS_P2;PMS_P1;PMS_P2;Temp;Humidity;BMP_temperature;BMP_pressure;BME280_temperature;BME280_humidity;BME280_pressure;Samples;Min_cycle;Max_cycle;Signal;HPM_P1;HPM_P2
2021/07/24 00:01:12;;;;;;;11.35;6.35;;;;;;;14.35;74.28;98517.59;5015720;28;20501;-62
2021/07/24 00:03:38;;;;;;;11.75;6.80;;;;;;;14.35;74.61;98511.47;5015759;28;20128;-61
2021/07/24 00:06:05;;;;;;;14.23;6.82;;;;;;;14.36;74.26;98515.75;5014167;28;20068;-63
2021/07/24 00:08:31;;;;;;;10.93;6.00;;;;;;;14.34;74.28;98517.88;5015307;28;20052;-63
2021/07/24 00:10:57;;;;;;;9.20;6.07;;;;;;;14.31;74.22;98517.38;5015510;28;20046;-61
2021/07/24 00:13:23;;;;;;;13.48;5.80;;;;;;;14.32;74.02;98513.63;5015332;28;20356;-62
2021/07/24 00:15:48;;;;;;;14.27;7.30;;;;;;;14.35;74.55;98509.59;5015525;28;20049;-62
2021/07/24 00:18:14;;;;;;;12.00;6.20;;;;;;;14.38;74.16;98525.00;5015467;28;20044;-62
2021/07/24 00:20:40;;;;;;;11.40;5.55;;;;;;;14.40;74.19;98519.41;5015181;28;20054;-62
2021/07/24 00:23:11;;;;;;;10.70;5.47;;;;;;;14.39;74.01;98517.84;5015187;28;20038;-63
2021/07/24 00:25:39;;;;;;;12.43;5.10;;;;;;;14.39;74.11;98521.28;5015120;28;20482;-62
2021/07/24 00:28:05;;;;;;;9.95;5.20;;;;;;;14.39;73.85;98529.28;5014859;28;20418;-63
2021/07/24 00:30:31;;;;;;;9.15;5.05;;;;;;;14.38;74.16;98524.22;5015245;28;20034;-62
2021/07/24 00:33:00;;;;;;;8.70;5.53;;;;;;;14.39;73.74;98523.97;4997516;28;20445;-62
2021/07/24 00:35:27;;;;;;;12.52;5.43;;;;;;;14.41;73.72;98523.66;5013776;28;20120;-61
2021/07/24 00:37:54;;;;;;;10.02;5.45;;;;;;;14.42;73.44;98519.94;5015351;28;20049;-62
2021/07/24 00:40:23;;;;;;;11.23;5.45;;;;;;;14.41;73.70;98523.66;5015108;28;20045;-62
2021/07/24 00:42:51;;;;;;;8.02;5.00;;;;;;;14.43;73.34;98524.19;5013687;28;20046;-61
2021/07/24 00:45:20;;;;;;;7.95;4.65;;;;;;;14.40;73.05;98525.53;5013462;28;20423;-63
2021/07/24 00:47:48;;;;;;;11.55;4.93;;;;;;;14.36;73.53;98524.53;5014891;28;20101;-62
2021/07/24 00:50:37;;;;;;;7.72;4.55;;;;;;;14.35;73.71;98516.78;5000257;28;20050;-62
2021/07/24 00:53:11;;;;;;;7.07;4.68;;;;;;;14.38;73.79;98524.22;5013393;28;20499;-63
2021/07/24 00:55:36;;;;;;;8.52;5.25;;;;;;;14.35;73.34;98527.47;5013436;28;20440;-63
2021/07/24 00:58:25;;;;;;;8.38;5.63;;;;;;;14.34;73.94;98525.88;5014443;28;20034;-62
2021/07/24 01:00:52;;;;;;;12.35;6.20;;;;;;;14.31;73.79;98524.56;5013377;28;20078;-62
2021/07/24 01:03:19;;;;;;;10.73;6.07;;;;;;;14.29;74.13;98530.19;5014641;28;20475;-61
2021/07/24 01:05:46;;;;;;;6.57;5.35;;;;;;;14.22;73.74;98524.38;5014223;28;20192;-62
2021/07/24 01:08:12;;;;;;;11.15;6.13;;;;;;;14.27;74.30;98535.00;5011851;28;20145;-63
2021/07/24 01:10:38;;;;;;;9.38;5.45;;;;;;;14.29;73.96;98535.53;5013190;28;20041;-62
2021/07/24 01:13:04;;;;;;;8.63;4.25;;;;;;;14.24;74.23;98537.44;5013013;28;20045;-63
2021/07/24 01:15:32;;;;;;;7.93;4.20;;;;;;;14.21;74.11;98538.81;5012934;28;20121;-62
2021/07/24 01:17:58;;;;;;;9.75;5.10;;;;;;;14.14;75.08;98548.19;5013148;28;20049;-61
2021/07/24 01:20:25;;;;;;;7.55;4.55;;;;;;;14.11;75.22;98554.09;5012842;28;20048;-61
2021/07/24 01:22:53;;;;;;;7.15;4.70;;;;;;;14.08;75.36;98553.56;5013117;28;20049;-62
2021/07/24 01:25:20;;;;;;;7.85;4.80;;;;;;;14.11;75.59;98552.22;5012846;28;20045;-62
2021/07/24 01:27:46;;;;;;;11.00;5.22;;;;;;;14.07;75.66;98549.31;5013380;28;20057;-62
2021/07/24 01:30:13;;;;;;;9.45;6.03;;;;;;;14.04;75.29;98557.88;5015000;28;20175;-63
2021/07/24 01:32:40;;;;;;;7.90;5.20;;;;;;;14.02;75.74;98567.22;5013114;28;20045;-62
2021/07/24 01:35:06;;;;;;;8.40;5.40;;;;;;;13.96;75.98;98561.13;4996738;28;20087;-62
2021/07/24 01:37:32;;;;;;;10.95;5.70;;;;;;;13.90;76.30;98551.59;5014365;28;20132;-62
2021/07/24 01:40:02;;;;;;;7.13;4.65;;;;;;;13.81;76.48;98561.25;4996195;28;20091;-62
2021/07/24 01:42:31;;;;;;;8.60;4.97;;;;;;;13.81;76.80;98569.25;4996617;28;20053;-62
2021/07/24 01:44:59;;;;;;;10.55;5.07;;;;;;;13.82;76.58;98576.16;5012414;28;20102;-61
2021/07/24 01:47:26;;;;;;;10.35;5.78;;;;;;;13.85;76.85;98568.44;5012433;28;20057;-61
2021/07/24 01:52:46;;;;;;;12.70;5.53;;;;;;;13.88;76.58;98568.94;5013755;28;20054;-61
2021/07/24 01:55:22;;;;;;;8.70;5.07;;;;;;;13.90;76.84;98564.13;4995955;28;20046;-62
2021/07/24 01:57:56;;;;;;;9.07;5.70;;;;;;;13.92;76.47;98569.97;5012236;28;20103;-61
2021/07/24 02:00:25;;;;;;;11.43;4.93;;;;;;;13.95;76.71;98575.53;4996308;28;20038;-61
2021/07/24 02:03:07;;;;;;;9.55;5.20;;;;;;;13.95;76.42;98586.19;4997503;28;20626;-61
2021/07/24 02:05:51;;;;;;;;;;;;;;;13.92;76.45;98583.31;5013971;28;20506;-61
2021/07/24 02:08:23;;;;;;;9.55;5.05;;;;;;;13.94;76.28;98578.47;5011786;28;19921;-62
2021/07/24 02:10:50;;;;;;;14.18;6.80;;;;;;;13.93;75.89;98579.56;5011724;28;20049;-62
2021/07/24 02:13:18;;;;;;;10.25;6.57;;;;;;;13.97;76.21;98583.25;5011883;28;20046;-63
2021/07/24 02:15:45;;;;;;;10.55;6.78;;;;;;;13.98;75.99;98584.84;5011670;28;20281;-62
2021/07/24 02:18:19;;;;;;;12.52;6.50;;;;;;;13.95;76.07;98588.88;5012782;28;20417;-62
2021/07/24 02:20:52;;;;;;;8.73;5.70;;;;;;;13.95;75.88;98580.88;5011619;28;20050;-62
2021/07/24 02:23:18;;;;;;;12.80;7.20;;;;;;;13.99;75.93;98591.75;4995563;28;20042;-62
2021/07/24 02:25:44;;;;;;;9.75;6.00;;;;;;;13.97;76.39;98597.38;4995176;28;20045;-62
2021/07/24 02:28:11;;;;;;;9.45;5.78;;;;;;;13.94;76.17;98589.94;5011396;28;20167;-62
2021/07/24 02:30:37;;;;;;;14.32;6.03;;;;;;;13.90;76.35;98598.75;5012822;28;20046;-62
2021/07/24 02:33:04;;;;;;;12.27;5.30;;;;;;;13.94;75.82;98594.47;5011538;28;20088;-62
2021/07/24 02:35:29;;;;;;;7.38;4.65;;;;;;;13.94;76.29;98592.63;5012873;28;20104;-62
2021/07/24 02:38:13;;;;;;;14.75;5.30;;;;;;;13.98;76.14;98593.63;5012786;28;20538;-62
2021/07/24 02:40:41;;;;;;;8.23;4.80;;;;;;;14.01;75.98;98594.94;4995215;28;20069;-62
2021/07/24 02:43:13;;;;;;;6.47;4.65;;;;;;;14.05;75.87;98598.63;5012920;28;20384;-63
2021/07/24 02:45:39;;;;;;;10.32;4.95;;;;;;;14.07;75.18;98602.63;5012813;28;20104;-61
2021/07/24 02:48:07;;;;;;;5.40;4.05;;;;;;;14.04;75.44;98605.84;5011331;28;20316;-63
2021/07/24 02:50:41;;;;;;;12.60;5.10;;;;;;;14.07;75.48;98605.28;4994767;28;20402;-62
2021/07/24 02:53:07;;;;;;;7.45;4.28;;;;;;;14.15;75.04;98603.91;5011250;28;20041;-63
2021/07/24 02:55:33;;;;;;;9.48;4.35;;;;;;;14.19;75.16;98598.78;4994739;28;20061;-63
2021/07/24 02:57:59;;;;;;;7.20;4.72;;;;;;;14.24;74.47;98607.53;5011067;28;20042;-62
2021/07/24 03:00:25;;;;;;;7.78;4.22;;;;;;;14.25;75.01;98590.47;5011040;28;20045;-62
2021/07/24 03:02:51;;;;;;;7.95;4.20;;;;;;;14.33;74.33;98605.06;5011009;28;20041;-62
2021/07/24 03:05:16;;;;;;;7.15;4.53;;;;;;;14.33;74.76;98599.75;5012386;28;20128;-62
2021/07/24 03:07:42;;;;;;;5.70;3.78;;;;;;;14.37;74.62;98605.28;5011989;28;20121;-62
2021/07/24 03:10:09;;;;;;;7.30;3.80;;;;;;;14.41;74.17;98609.81;5012164;28;20219;-63
2021/07/24 03:12:35;;;;;;;7.10;4.40;;;;;;;14.44;74.13;98611.09;5012474;28;20133;-62
2021/07/24 03:15:01;;;;;;;7.43;4.10;;;;;;;14.48;73.75;98620.91;4994460;28;20120;-63
2021/07/24 03:17:28;;;;;;;7.43;4.50;;;;;;;14.49;73.99;98619.03;4994602;28;20503;-62
2021/07/24 03:19:54;;;;;;;6.85;4.20;;;;;;;14.50;74.13;98624.09;5012241;28;20087;-63
2021/07/24 03:22:20;;;;;;;9.75;4.05;;;;;;;14.51;74.25;98630.22;5011720;28;20124;-62
2021/07/24 03:24:45;;;;;;;4.88;3.63;;;;;;;14.57;73.75;98623.78;5011887;28;20492;-64
2021/07/24 03:27:11;;;;;;;5.15;3.85;;;;;;;14.56;73.61;98621.41;5011885;28;20057;-61
2021/07/24 03:29:37;;;;;;;6.07;4.10;;;;;;;14.63;73.51;98630.66;4994464;28;20056;-63
2021/07/24 03:32:03;;;;;;;6.60;3.90;;;;;;;14.60;73.43;98631.22;5011587;28;20041;-62
2021/07/24 03:34:29;;;;;;;7.32;4.25;;;;;;;14.68;73.41;98635.97;4977566;28;20047;-62
2021/07/24 03:36:55;;;;;;;5.55;3.80;;;;;;;14.77;73.27;98647.59;5012148;28;20522;-62
2021/07/24 03:39:21;;;;;;;7.85;3.85;;;;;;;14.78;72.74;98635.06;5011726;28;20086;-63
2021/07/24 03:41:46;;;;;;;5.10;3.47;;;;;;;14.77;72.62;98644.94;5011888;28;20563;-63
2021/07/24 03:44:12;;;;;;;5.57;3.88;;;;;;;14.87;72.80;98651.22;5011665;28;20077;-63
2021/07/24 03:46:38;;;;;;;6.70;3.42;;;;;;;14.90;72.26;98659.47;5011851;28;20062;-62
2021/07/24 03:49:04;;;;;;;5.20;3.67;;;;;;;14.91;71.80;98655.75;5011832;28;20050;-64
2021/07/24 03:51:29;;;;;;;5.88;3.42;;;;;;;14.97;71.86;98661.78;5011426;28;20046;-63
2021/07/24 03:53:55;;;;;;;5.70;3.10;;;;;;;14.99;71.69;98671.09;5010447;28;20050;-62
2021/07/24 03:56:22;;;;;;;7.20;3.63;;;;;;;15.13;71.35;98671.22;5011768;28;20042;-61
2021/07/24 03:58:51;;;;;;;4.00;3.05;;;;;;;15.18;70.36;98671.19;5011481;28;20042;-62
2021/07/24 04:01:17;;;;;;;6.15;3.15;;;;;;;15.16;70.54;98670.66;4994065;28;20111;-62
2021/07/24 04:03:43;;;;;;;5.55;3.13;;;;;;;15.21;70.59;98681.28;5011525;28;20498;-62
2021/07/24 04:06:15;;;;;;;4.80;3.00;;;;;;;15.28;70.25;98688.94;5011752;28;20056;-62
2021/07/24 04:08:41;;;;;;;5.03;3.38;;;;;;;15.35;69.85;98697.41;5010499;28;20046;-61
2021/07/24 04:11:08;;;;;;;4.70;3.28;;;;;;;15.33;69.35;98693.44;5011458;28;20064;-62
2021/07/24 04:13:34;;;;;;;5.25;3.45;;;;;;;15.38;69.60;98699.53;5010143;28;20034;-63
2021/07/24 04:16:00;;;;;;;4.78;2.80;;;;;;;15.40;69.75;98696.53;5010338;28;20087;-62
2021/07/24 04:18:30;;;;;;;7.68;3.35;;;;;;;15.53;69.55;98701.22;5011290;28;20042;-63
2021/07/24 04:20:55;;;;;;;5.35;3.22;;;;;;;15.62;68.34;98707.50;5010052;28;20499;-62
2021/07/24 04:23:21;;;;;;;3.53;2.85;;;;;;;15.70;67.51;98710.63;5011443;28;20073;-62
2021/07/24 04:25:47;;;;;;;4.35;2.72;;;;;;;15.72;66.50;98705.81;5011190;28;20080;-62
2021/07/24 04:28:12;;;;;;;5.07;2.83;;;;;;;15.86;66.59;98714.69;5010956;28;20057;-63
2021/07/24 04:30:38;;;;;;;6.32;2.97;;;;;;;15.99;66.46;98719.31;5011287;28;20387;-62
2021/07/24 04:33:04;;;;;;;4.68;2.70;;;;;;;16.08;65.55;98722.91;5011431;28;20038;-62
2021/07/24 04:35:30;;;;;;;3.05;2.47;;;;;;;16.26;64.36;98723.19;5011336;28;20049;-62
2021/07/24 04:37:56;;;;;;;3.00;2.30;;;;;;;16.37;63.09;98724.66;4993505;28;20045;-62
2021/07/24 04:40:21;;;;;;;4.25;2.60;;;;;;;16.51;63.24;98722.03;5011321;28;20041;-62
2021/07/24 04:42:47;;;;;;;2.58;2.35;;;;;;;16.63;61.75;98722.34;5013563;28;20041;-62
2021/07/24 04:45:13;;;;;;;5.97;3.38;;;;;;;16.76;61.20;98720.81;5014879;28;20048;-62
2021/07/24 04:47:38;;;;;;;3.63;2.55;;;;;;;16.89;60.88;98727.31;5014775;28;20423;-62
2021/07/24 04:50:05;;;;;;;4.05;2.40;;;;;;;16.98;58.15;98729.00;5013290;28;20415;-63
2021/07/24 04:52:30;;;;;;;3.05;2.40;;;;;;;16.95;58.78;98734.16;5014972;28;20050;-62
2021/07/24 04:54:59;;;;;;;3.42;2.38;;;;;;;17.05;57.77;98739.31;5014806;28;20046;-63
2021/07/24 04:57:28;;;;;;;4.30;2.75;;;;;;;17.12;58.02;98739.75;4981005;28;20440;-62
2021/07/24 04:59:54;;;;;;;2.53;2.10;;;;;;;17.06;58.06;98742.78;5013099;28;20038;-62
2021/07/24 05:02:20;;;;;;;3.25;2.03;;;;;;;17.13;58.32;98741.31;5014759;28;20056;-63
2021/07/24 05:04:47;;;;;;;5.18;2.28;;;;;;;17.15;56.94;98735.69;5014261;28;20056;-62
2021/07/24 05:07:17;;;;;;;3.45;2.35;;;;;;;17.18;57.45;98735.88;5014762;28;20487;-62
2021/07/24 05:09:43;;;;;;;4.60;2.22;;;;;;;17.25;57.44;98736.25;5012895;28;20042;-62
2021/07/24 05:12:09;;;;;;;2.83;2.05;;;;;;;17.34;56.44;98733.69;5014525;28;20159;-61
2021/07/24 05:14:35;;;;;;;3.50;2.03;;;;;;;17.31;56.18;98736.19;4996533;28;20515;-64
2021/07/24 05:17:09;;;;;;;3.60;2.13;;;;;;;17.37;55.21;98735.78;5014451;28;20041;-63
2021/07/24 05:19:43;;;;;;;2.95;1.83;;;;;;;17.51;54.61;98748.38;5012757;28;20060;-61
2021/07/24 05:22:10;;;;;;;2.88;1.60;;;;;;;17.55;53.17;98746.69;5014393;28;20050;-64
2021/07/24 05:24:37;;;;;;;3.78;2.10;;;;;;;17.62;54.64;98747.88;5013886;28;20050;-63
2021/07/24 05:27:04;;;;;;;3.15;2.03;;;;;;;17.79;53.66;98754.53;5013960;28;20057;-62
2021/07/24 05:29:30;;;;;;;4.60;1.80;;;;;;;17.77;53.69;98741.41;5013796;28;20049;-62
2021/07/24 05:31:56;;;;;;;2.35;1.70;;;;;;;17.78;53.09;98748.38;5012467;28;20474;-62
2021/07/24 05:34:22;;;;;;;2.95;1.80;;;;;;;17.88;52.89;98750.03;5014069;28;20046;-63
2021/07/24 05:36:49;;;;;;;2.38;1.98;;;;;;;18.02;52.56;98758.06;5013935;28;20135;-63
2021/07/24 05:39:14;;;;;;;3.85;1.90;;;;;;;18.16;51.64;98756.16;5013702;28;20057;-64
2021/07/24 05:41:40;;;;;;;2.38;1.50;;;;;;;18.09;50.53;98758.47;5013850;28;20045;-63
2021/07/24 05:44:06;;;;;;;1.88;1.70;;;;;;;18.12;51.01;98752.50;5013567;28;20518;-63
2021/07/24 05:46:32;;;;;;;2.33;1.60;;;;;;;17.98;50.99;98752.53;5013656;28;20052;-62
2021/07/24 05:48:58;;;;;;;1.90;1.60;;;;;;;17.93;51.33;98758.78;5013408;28;20489;-62
2021/07/24 05:51:24;;;;;;;3.72;1.48;;;;;;;17.68;50.96;98753.94;5013621;28;20057;-63
2021/07/24 05:53:49;;;;;;;2.63;1.65;;;;;;;17.61;50.98;98758.88;5013051;28;20044;-64
2021/07/24 05:56:15;;;;;;;2.17;1.60;;;;;;;17.64;52.26;98761.75;5012097;28;20049;-62
2021/07/24 05:58:41;;;;;;;1.85;1.60;;;;;;;17.61;51.39;98765.03;5013298;28;20041;-61
2021/07/24 06:01:11;;;;;;;1.75;1.30;;;;;;;17.70;50.96;98767.81;5012171;28;20091;-63
2021/07/24 06:03:37;;;;;;;2.28;1.20;;;;;;;17.66;49.25;98758.78;5013273;28;20041;-62
2021/07/24 06:06:04;;;;;;;1.55;1.40;;;;;;;17.64;49.83;98777.84;5011942;28;20466;-64
2021/07/24 06:08:29;;;;;;;1.98;1.40;;;;;;;17.60;48.89;98781.44;5013003;28;20042;-64
2021/07/24 06:11:02;;;;;;;1.40;1.30;;;;;;;17.59;48.70;98779.81;5013198;28;20060;-62
2021/07/24 06:13:29;;;;;;;1.50;1.17;;;;;;;17.62;48.58;98774.69;5013389;28;20076;-62
2021/07/24 06:15:54;;;;;;;2.08;1.35;;;;;;;17.67;48.80;98785.28;5013279;28;20045;-61
2021/07/24 06:18:23;;;;;;;2.20;1.33;;;;;;;17.88;49.48;98779.53;5013219;28;20130;-63
2021/07/24 06:20:49;;;;;;;2.28;1.50;;;;;;;18.08;47.79;98781.00;5013133;28;20375;-63
2021/07/24 06:23:16;;;;;;;2.30;1.30;;;;;;;18.26;47.12;98793.47;5012956;28;20050;-63
2021/07/24 06:25:45;;;;;;;4.15;1.50;;;;;;;18.33;47.70;98785.81;5012572;28;20054;-61
2021/07/24 06:28:12;;;;;;;1.77;1.40;;;;;;;18.36;46.87;98787.09;5012514;28;20058;-63
2021/07/24 06:30:38;;;;;;;3.38;1.42;;;;;;;18.33;47.39;98793.88;5012270;28;20045;-61
2021/07/24 06:33:04;;;;;;;1.30;1.20;;;;;;;18.20;45.83;98800.03;5011399;28;20046;-62
2021/07/24 06:35:31;;;;;;;1.20;1.10;;;;;;;18.21;45.53;98788.22;5012934;28;20044;-63
2021/07/24 06:37:56;;;;;;;1.10;1.00;;;;;;;18.22;44.48;98792.50;5012675;28;20042;-62
2021/07/24 06:40:23;;;;;;;1.05;1.02;;;;;;;18.33;44.66;98795.75;5012857;28;20045;-64
2021/07/24 06:42:49;;;;;;;1.20;1.10;;;;;;;18.44;43.93;98805.13;5012572;28;20057;-62
2021/07/24 06:45:15;;;;;;;1.30;1.10;;;;;;;18.50;43.41;98798.59;5013217;28;20415;-63
2021/07/24 06:47:41;;;;;;;1.35;1.20;;;;;;;18.59;43.97;98802.13;5011655;28;20050;-62
2021/07/24 06:50:07;;;;;;;1.92;1.40;;;;;;;18.79;43.05;98787.44;5013388;28;20042;-65
2021/07/24 06:52:33;;;;;;;2.08;1.10;;;;;;;18.91;41.87;98799.50;5011773;28;20450;-63
2021/07/24 06:54:59;;;;;;;1.30;1.00;;;;;;;19.00;41.48;98797.66;5012864;28;20553;-64
2021/07/24 06:57:25;;;;;;;1.50;1.10;;;;;;;18.96;42.21;98800.19;5012321;28;20203;-63
2021/07/24 06:59:50;;;;;;;1.30;1.20;;;;;;;18.95;42.61;98803.19;5010901;28;20092;-62
2021/07/24 07:02:16;;;;;;;1.48;1.08;;;;;;;18.81;42.82;98803.25;4994484;28;20471;-62
2021/07/24 07:04:42;;;;;;;2.75;1.15;;;;;;;18.83;42.50;98801.84;5010485;28;20077;-64
2021/07/24 07:07:08;;;;;;;1.10;1.00;;;;;;;18.67;43.11;98803.28;5011752;28;20045;-64
2021/07/24 07:09:34;;;;;;;2.20;1.38;;;;;;;18.66;43.21;98804.38;5010851;28;20054;-62
2021/07/24 07:12:00;;;;;;;1.77;1.17;;;;;;;18.69;43.79;98811.03;5011794;28;20061;-63
2021/07/24 07:14:26;;;;;;;1.25;1.05;;;;;;;18.57;44.02;98808.88;5010864;28;20054;-62
2021/07/24 07:16:52;;;;;;;1.40;1.05;;;;;;;18.63;43.64;98802.31;5012079;28;20104;-62
2021/07/24 07:19:19;;;;;;;1.40;1.30;;;;;;;18.70;43.72;98791.91;5012361;28;20519;-62
2021/07/24 07:21:45;;;;;;;1.25;1.10;;;;;;;18.70;43.73;98808.03;5012015;28;20129;-63
2021/07/24 07:24:11;;;;;;;0.90;0.90;;;;;;;18.82;43.50;98802.97;5012199;28;20042;-62
2021/07/24 07:26:37;;;;;;;1.05;1.05;;;;;;;18.92;43.71;98801.13;5011532;28;20543;-64
2021/07/24 07:29:03;;;;;;;1.90;1.25;;;;;;;19.00;43.62;98808.41;5011882;28;20049;-64
2021/07/24 07:31:30;;;;;;;1.20;1.08;;;;;;;19.24;42.80;98808.88;4961846;28;20565;-62
2021/07/24 07:33:56;;;;;;;1.77;1.10;;;;;;;19.41;42.45;98802.81;5012002;28;20046;-63
2021/07/24 07:36:22;;;;;;;1.80;1.20;;;;;;;19.49;42.52;98820.06;5011825;28;20038;-64
2021/07/24 07:38:48;;;;;;;1.20;1.10;;;;;;;19.60;42.48;98813.31;5010263;28;20132;-63
2021/07/24 07:41:14;;;;;;;1.38;1.20;;;;;;;19.83;41.80;98813.25;5011361;28;20041;-63
2021/07/24 07:43:41;;;;;;;1.48;1.20;;;;;;;20.08;41.30;98823.28;5011624;28;20045;-63
2021/07/24 07:46:06;;;;;;;1.38;1.02;;;;;;;19.99;41.21;98825.16;5011491;28;20439;-63
2021/07/24 07:48:34;;;;;;;1.40;1.30;;;;;;;19.96;41.25;98828.47;5011331;28;20137;-63
2021/07/24 07:51:01;;;;;;;1.20;1.10;;;;;;;20.10;40.60;98823.75;5010397;28;20045;-63
2021/07/24 07:53:27;;;;;;;1.52;1.02;;;;;;;20.34;40.64;98822.53;5011688;28;20050;-62
2021/07/24 07:55:52;;;;;;;1.25;1.17;;;;;;;20.38;40.37;98821.59;5010252;28;20496;-62
2021/07/24 07:58:18;;;;;;;1.25;1.15;;;;;;;20.46;40.07;98833.44;5011543;28;20151;-62
2021/07/24 08:00:44;;;;;;;2.42;1.00;;;;;;;20.16;41.39;98833.25;5011158;28;20057;-63
2021/07/24 08:03:10;;;;;;;2.10;1.25;;;;;;;19.97;41.96;98830.03;5011457;28;20577;-63
2021/07/24 08:05:35;;;;;;;1.55;1.20;;;;;;;20.11;41.87;98824.53;5011391;28;20546;-62
2021/07/24 08:08:01;;;;;;;1.33;1.20;;;;;;;20.13;42.07;98827.72;5009985;28;20089;-62
2021/07/24 08:10:27;;;;;;;1.30;1.20;;;;;;;20.11;41.99;98833.41;5011285;28;20490;-63
2021/07/24 08:12:53;;;;;;;1.30;1.20;;;;;;;20.00;41.68;98834.00;5009999;28;20136;-63
2021/07/24 08:15:19;;;;;;;1.45;1.00;;;;;;;20.11;42.47;98843.38;5010063;28;20053;-63
2021/07/24 08:17:45;;;;;;;1.40;1.20;;;;;;;20.16;41.38;98829.78;5012429;28;20054;-63
2021/07/24 08:20:11;;;;;;;1.42;1.33;;;;;;;20.23;40.74;98834.69;5015405;28;20074;-64
2021/07/24 08:22:37;;;;;;;2.03;1.48;;;;;;;20.29;41.67;98841.50;5015022;28;20056;-64
2021/07/24 08:25:05;;;;;;;1.20;1.10;;;;;;;20.32;40.41;98838.19;5015060;28;20042;-63
2021/07/24 08:27:34;;;;;;;2.33;1.20;;;;;;;20.29;40.50;98833.44;5015149;28;20054;-63
2021/07/24 08:30:00;;;;;;;3.42;1.20;;;;;;;20.45;40.01;98836.47;5014155;28;20482;-63
2021/07/24 08:32:26;;;;;;;2.85;1.08;;;;;;;20.26;39.12;98853.69;5013601;28;20085;-64
2021/07/24 08:34:52;;;;;;;1.25;1.15;;;;;;;20.20;39.28;98836.91;5015129;28;20088;-64
2021/07/24 08:37:19;;;;;;;1.42;1.00;;;;;;;20.43;39.29;98837.56;5014726;28;20562;-64
2021/07/24 08:39:45;;;;;;;1.33;1.17;;;;;;;20.74;39.22;98843.94;5014769;28;20088;-62
2021/07/24 08:42:41;;;;;;;2.50;1.17;;;;;;;20.98;37.82;98848.84;5015039;28;20050;-63
2021/07/24 08:45:08;;;;;;;2.35;1.20;;;;;;;20.83;39.08;98850.91;5013711;28;20050;-63
2021/07/24 08:47:34;;;;;;;3.15;1.20;;;;;;;21.03;38.06;98851.34;5013645;28;20088;-63
2021/07/24 08:50:01;;;;;;;1.38;1.20;;;;;;;21.12;38.10;98851.34;5014522;28;20050;-63
2021/07/24 08:52:28;;;;;;;1.23;1.13;;;;;;;21.03;38.66;98860.25;5014341;28;20557;-62
2021/07/24 08:54:55;;;;;;;0.88;0.85;;;;;;;20.97;38.44;98847.22;5014002;28;20133;-62
2021/07/24 08:57:27;;;;;;;1.10;1.00;;;;;;;20.85;39.08;98854.09;5014315;28;20056;-62
2021/07/24 08:59:59;;;;;;;2.47;1.40;;;;;;;20.88;40.10;98855.31;5014451;28;20045;-62
2021/07/24 09:02:29;;;;;;;1.65;1.40;;;;;;;21.09;39.88;98871.66;4996780;28;20041;-63
2021/07/24 09:04:57;;;;;;;1.25;1.10;;;;;;;21.12;39.46;98859.41;5014366;28;20156;-63
2021/07/24 09:07:27;;;;;;;1.58;1.40;;;;;;;21.13;40.54;98867.19;5013980;28;20499;-62
2021/07/24 09:09:58;;;;;;;1.20;1.10;;;;;;;21.09;39.78;98875.13;5014037;28;20427;-63
2021/07/24 09:12:25;;;;;;;1.13;1.00;;;;;;;20.90;38.52;98879.25;5014042;28;20578;-63
2021/07/24 09:14:51;;;;;;;1.35;1.25;;;;;;;20.59;38.67;98877.53;5014452;28;20451;-64
2021/07/24 09:17:19;;;;;;;1.20;1.10;;;;;;;20.56;39.26;98884.34;5014262;28;20095;-61
2021/07/24 09:19:45;;;;;;;3.63;1.30;;;;;;;20.06;39.85;98900.81;5014219;28;20041;-63
2021/07/24 09:22:40;;;;;;;4.95;1.05;;;;;;;19.43;40.19;98923.44;5013904;28;20034;-62
2021/07/24 09:25:12;;;;;;;1.15;0.98;;;;;;;18.79;41.95;98904.78;5014273;28;20124;-63
2021/07/24 09:27:49;;;;;;;0.82;0.80;;;;;;;18.57;42.20;98935.84;5013794;28;20503;-62
2021/07/24 09:30:24;;;;;;;1.27;0.90;;;;;;;18.39;42.79;98920.66;5013648;28;20450;-62
2021/07/24 09:33:25;;;;;;;2.10;1.05;;;;;;;18.18;44.53;98920.28;5013844;28;20045;-63
2021/07/24 09:35:53;;;;;;;0.70;0.70;;;;;;;17.91;45.36;98915.69;5013427;28;20099;-62
2021/07/24 09:38:27;;;;;;;1.63;1.20;;;;;;;17.52;47.64;98908.06;5013683;28;20054;-61
2021/07/24 09:40:55;;;;;;;3.92;1.30;;;;;;;17.61;46.34;98911.66;5012464;28;20064;-62
2021/07/24 09:43:33;;;;;;;2.50;1.10;;;;;;;17.77;44.98;98912.19;5013871;28;20479;-63
2021/07/24 09:46:09;;;;;;;1.55;1.10;;;;;;;17.95;43.31;98913.22;5013664;28;20641;-63
2021/07/24 09:48:35;;;;;;;2.55;2.08;;;;;;;18.19;41.96;98907.66;5012331;28;20054;-63
2021/07/24 09:51:01;;;;;;;4.45;2.58;;;;;;;18.56;41.77;98904.72;5013660;28;20184;-61
2021/07/24 09:53:36;;;;;;;6.25;2.53;;;;;;;18.98;42.04;98912.69;5013566;28;20046;-63
2021/07/24 09:56:03;;;;;;;1.63;1.45;;;;;;;19.16;39.61;98906.34;5012240;28;20474;-65
2021/07/24 09:58:29;;;;;;;1.73;1.42;;;;;;;19.34;40.85;98917.22;5012335;28;20136;-63
2021/07/24 10:01:06;;;;;;;2.40;1.13;;;;;;;19.52;40.79;98906.25;4995745;28;20674;-63
2021/07/24 10:03:35;;;;;;;1.40;1.30;;;;;;;19.69;40.44;98913.63;5013622;28;20048;-62
2021/07/24 10:06:09;;;;;;;1.25;1.15;;;;;;;19.87;40.73;98911.81;5013348;28;20049;-63
2021/07/24 10:08:37;;;;;;;1.30;1.20;;;;;;;19.84;42.21;98909.75;5013481;28;20053;-63
2021/07/24 10:11:03;;;;;;;3.65;1.15;;;;;;;19.62;42.57;98918.66;5011914;28;20088;-63
2021/07/24 10:13:28;;;;;;;1.33;1.00;;;;;;;19.63;43.47;98920.22;5013333;28;20124;-63
2021/07/24 10:15:56;;;;;;;1.30;1.20;;;;;;;19.73;43.98;98924.56;5011759;28;20520;-62
2021/07/24 10:18:22;;;;;;;1.40;1.30;;;;;;;19.79;44.04;98928.69;5011771;28;20050;-62
2021/07/24 10:20:50;;;;;;;1.40;1.30;;;;;;;19.79;43.89;98917.16;5011397;28;20042;-62
2021/07/24 10:23:20;;;;;;;2.03;1.42;;;;;;;20.09;43.56;98920.91;5012820;28;20081;-62
2021/07/24 10:26:15;;;;;;;3.40;2.50;;;;;;;20.37;43.60;98916.09;5012531;28;20042;-62
2021/07/24 10:28:58;;;;;;;1.40;1.30;;;;;;;20.56;41.11;98919.34;5012751;28;20149;-62
2021/07/24 10:31:42;;;;;;;1.42;1.00;;;;;;;20.78;39.04;98920.31;5011429;28;20050;-62
2021/07/24 10:34:08;;;;;;;1.08;1.00;;;;;;;20.87;37.34;98918.41;4995421;28;20132;-62
2021/07/24 10:36:37;;;;;;;1.33;1.10;;;;;;;20.93;40.69;98952.16;4995168;28;20099;-63
2021/07/24 10:39:15;;;;;;;2.37;1.30;;;;;;;20.33;41.62;98926.69;5012995;28;20096;-62
2021/07/24 10:41:43;;;;;;;1.95;1.20;;;;;;;20.02;43.44;98950.19;5012618;28;20077;-62
2021/07/24 10:44:11;;;;;;;1.55;0.93;;;;;;;19.66;37.68;98941.16;5012922;28;20049;-63
2021/07/24 10:46:45;;;;;;;2.00;1.10;;;;;;;19.59;37.28;98930.00;5012456;28;20063;-62
2021/07/24 10:49:20;;;;;;;1.20;1.10;;;;;;;19.64;37.03;98947.91;5012542;28;20060;-62
2021/07/24 10:51:52;;;;;;;1.00;1.00;;;;;;;19.59;37.54;98940.78;5012503;28;20041;-63
2021/07/24 10:54:18;;;;;;;2.30;1.05;;;;;;;19.71;38.23;98937.53;5012656;28;20084;-63
2021/07/24 10:56:44;;;;;;;1.00;1.00;;;;;;;19.75;37.79;98938.50;5012466;28;20073;-63
2021/07/24 10:59:13;;;;;;;1.02;1.00;;;;;;;19.84;37.94;98928.56;5011064;28;20558;-63
2021/07/24 11:01:52;;;;;;;1.13;1.00;;;;;;;19.95;37.80;98931.78;5010758;28;20457;-64
2021/07/24 11:04:37;;;;;;;1.65;1.08;;;;;;;20.07;37.89;98931.22;5012041;28;20088;-64
2021/07/24 11:07:21;;;;;;;3.47;1.20;;;;;;;20.13;37.53;98930.75;5012377;28;20038;-64
2021/07/24 11:10:07;;;;;;;1.17;1.10;;;;;;;20.11;37.93;98937.53;5010534;28;20072;-63
2021/07/24 11:12:35;;;;;;;1.33;1.10;;;;;;;20.12;38.57;98939.16;5011116;28;20054;-64
2021/07/24 11:15:01;;;;;;;1.67;1.08;;;;;;;20.09;39.11;98934.38;5011864;28;20602;-63
2021/07/24 11:17:27;;;;;;;1.27;1.10;;;;;;;20.08;39.83;98943.56;5010971;28;20041;-63
2021/07/24 11:19:56;;;;;;;1.30;1.20;;;;;;;19.95;40.74;98946.03;5011964;28;20053;-64
2021/07/24 11:22:23;;;;;;;1.35;1.25;;;;;;;19.76;40.88;98944.66;5011662;28;20052;-63
2021/07/24 11:24:52;;;;;;;1.02;1.00;;;;;;;19.63;41.59;98939.03;4994110;28;20470;-63
2021/07/24 11:30:06;;;;;;;2.05;1.38;;;;;;;19.45;41.66;98948.91;5012072;28;20439;-64
2021/07/24 11:32:42;;;;;;;2.45;1.30;;;;;;;19.54;41.25;98942.78;5011778;28;20038;-63
2021/07/24 11:35:13;;;;;;;1.80;1.23;;;;;;;19.54;42.60;98945.47;5011792;28;20038;-63
2021/07/24 11:37:43;;;;;;;1.00;1.00;;;;;;;19.46;41.60;98947.00;5011652;28;20093;-64
2021/07/24 11:40:35;;;;;;;1.40;1.17;;;;;;;19.52;41.21;98945.78;5011642;28;20136;-63
2021/07/24 11:43:07;;;;;;;1.30;1.20;;;;;;;19.70;40.65;98944.78;5011641;28;20113;-62